createdAt,value
2023-02-26T00:01:41.250Z,156605.56
2023-02-26T00:04:10.185Z,156591.00
2023-02-26T00:06:39.899Z,156594.97
2023-02-26T00:09:07.438Z,156576.44
2023-02-26T00:11:35.030Z,156569.81
2023-02-26T00:14:02.790Z,156575.09
2023-02-26T00:16:36.073Z,156567.16
2023-02-26T00:19:05.776Z,156569.81
2023-02-26T00:21:34.240Z,156565.81
2023-02-26T00:24:02.426Z,156563.19
2023-02-26T00:26:31.574Z,156572.44
2023-02-26T00:29:00.166Z,156563.19
2023-02-26T00:31:28.199Z,156543.31
2023-02-26T00:33:57.552Z,156536.69
2023-02-26T00:36:50.147Z,156531.38
2023-02-26T00:39:36.587Z,156526.13
2023-02-26T00:42:04.408Z,156512.88
2023-02-26T00:44:32.513Z,156522.13
2023-02-26T00:47:23.671Z,156518.19
2023-02-26T00:50:05.857Z,156524.81
2023-02-26T00:52:36.932Z,156500.94
2023-02-26T00:55:04.824Z,156504.94
2023-02-26T00:57:31.924Z,156499.63
2023-02-26T00:59:59.501Z,156481.09
2023-02-26T01:02:27.328Z,156489.03
2023-02-26T01:04:56.410Z,156491.69
2023-02-26T01:07:24.867Z,156491.69
2023-02-26T01:09:52.885Z,156483.75
2023-02-26T01:12:20.424Z,156490.38
2023-02-26T01:14:48.403Z,156475.81
2023-02-26T01:17:36.822Z,156479.75
2023-02-26T01:20:25.831Z,156474.47
2023-02-26T01:23:05.318Z,156454.59
2023-02-26T01:25:43.554Z,156462.59
2023-02-26T01:28:11.293Z,156453.28
2023-02-26T01:30:39.363Z,156445.34
2023-02-26T01:33:25.180Z,156469.19
2023-02-26T01:35:56.313Z,156463.91
2023-02-26T01:38:48.383Z,156466.53
2023-02-26T01:41:34.754Z,156462.59
2023-02-26T01:44:08.108Z,156449.34
2023-02-26T01:47:06.436Z,156441.41
2023-02-26T01:49:34.519Z,156453.28
2023-02-26T01:52:07.228Z,156426.81
2023-02-26T01:54:36.330Z,156434.78
2023-02-26T01:57:06.189Z,156425.47
2023-02-26T01:59:35.689Z,156422.84
2023-02-26T02:02:08.198Z,156421.53
2023-02-26T02:04:36.149Z,156405.63
2023-02-26T02:07:05.646Z,156426.81
2023-02-26T02:09:33.211Z,156429.47
2023-02-26T02:12:35.133Z,156421.53
2023-02-26T02:15:11.460Z,156425.47
2023-02-26T02:18:16.930Z,156417.56
2023-02-26T02:21:06.051Z,156417.56
2023-02-26T02:23:59.746Z,156410.94
2023-02-26T02:26:36.562Z,156409.63
2023-02-26T02:29:28.433Z,156416.25
2023-02-26T02:32:01.466Z,156416.25
2023-02-26T02:34:35.630Z,156434.78
2023-02-26T02:37:05.451Z,156434.78
2023-02-26T02:39:37.770Z,156430.78
2023-02-26T02:42:09.832Z,156429.47
2023-02-26T02:44:41.124Z,156441.41
2023-02-26T02:47:10.108Z,156446.66
2023-02-26T02:50:03.347Z,156442.72
2023-02-26T02:52:39.251Z,156438.72
2023-02-26T02:55:13.561Z,156436.09
2023-02-26T02:57:48.897Z,156437.41
2023-02-26T03:00:17.443Z,156450.66
2023-02-26T03:02:53.199Z,156437.41
2023-02-26T03:05:21.112Z,156438.72
2023-02-26T03:07:55.997Z,156446.66
2023-02-26T03:10:23.727Z,156433.41
2023-02-26T03:12:51.056Z,156434.78
2023-02-26T03:15:42.634Z,156436.09
2023-02-26T03:18:23.310Z,156436.09
2023-02-26T03:21:27.342Z,156440.03
2023-02-26T03:24:06.414Z,156441.41
2023-02-26T03:26:41.042Z,156446.66
2023-02-26T03:29:31.681Z,156425.47
2023-02-26T03:32:04.480Z,156437.41
2023-02-26T03:34:51.833Z,156434.78
2023-02-26T03:37:23.393Z,156440.03
2023-02-26T03:39:54.921Z,156436.09
2023-02-26T03:43:07.430Z,156445.34
2023-02-26T03:45:36.305Z,156453.28
2023-02-26T03:48:06.888Z,156428.16
2023-02-26T03:50:54.189Z,156434.78
2023-02-26T03:53:40.917Z,156453.28
2023-02-26T03:56:28.605Z,156445.34
2023-02-26T03:59:22.097Z,156442.72
2023-02-26T04:02:06.869Z,156438.72
2023-02-26T04:04:46.076Z,156442.72
2023-02-26T04:07:15.186Z,156438.72
2023-02-26T04:09:44.352Z,156449.34
2023-02-26T04:12:11.850Z,156451.97
2023-02-26T04:14:43.143Z,156451.97
2023-02-26T04:17:10.513Z,156450.66
2023-02-26T04:19:38.211Z,156454.59
2023-02-26T04:22:06.217Z,156454.59
2023-02-26T04:24:33.842Z,156434.78
2023-02-26T04:27:02.620Z,156459.91
2023-02-26T04:29:31.090Z,156453.28
2023-02-26T04:31:58.598Z,156449.34
2023-02-26T04:34:26.416Z,156451.97
2023-02-26T04:36:54.063Z,156466.53
2023-02-26T04:39:22.141Z,156436.09
2023-02-26T04:41:49.395Z,156438.72
2023-02-26T04:44:17.048Z,156422.84
2023-02-26T04:46:44.572Z,156416.25
2023-02-26T04:49:13.328Z,156421.53
2023-02-26T04:51:44.274Z,156409.63
2023-02-26T04:54:14.521Z,156401.69
2023-02-26T04:56:42.521Z,156392.44
2023-02-26T04:59:10.464Z,156396.38
2023-02-26T05:01:37.925Z,156396.38
2023-02-26T05:04:08.785Z,156403.00
2023-02-26T05:06:37.061Z,156401.69
2023-02-26T05:09:04.972Z,156391.06
2023-02-26T05:11:33.098Z,156392.44
2023-02-26T05:14:00.721Z,156385.81
2023-02-26T05:16:28.448Z,156388.44
2023-02-26T05:18:58.327Z,156381.81
2023-02-26T05:21:26.356Z,156392.44
2023-02-26T05:23:54.217Z,156391.06
2023-02-26T05:26:21.461Z,156369.91
2023-02-26T05:28:49.429Z,156384.44
2023-02-26T05:31:16.946Z,156354.03
2023-02-26T05:33:45.140Z,156319.63
2023-02-26T05:36:13.258Z,156291.84
2023-02-26T05:38:40.968Z,156261.44
2023-02-26T05:41:08.125Z,156221.72
2023-02-26T05:43:36.297Z,156250.81
2023-02-26T05:46:03.504Z,156249.50
2023-02-26T05:48:31.088Z,156244.22
2023-02-26T05:50:58.403Z,156242.91
2023-02-26T05:53:26.125Z,156227.03
2023-02-26T05:55:54.059Z,156220.41
2023-02-26T05:58:21.794Z,156225.72
2023-02-26T06:00:49.134Z,156219.09
2023-02-26T06:03:16.899Z,156213.81
2023-02-26T06:05:44.185Z,156213.81
2023-02-26T06:08:15.696Z,156193.97
2023-02-26T06:10:43.651Z,156193.97
2023-02-26T06:13:11.357Z,156197.94
2023-02-26T06:15:38.747Z,156199.25
2023-02-26T06:18:06.395Z,156199.25
2023-02-26T06:20:33.605Z,156201.88
2023-02-26T06:23:01.264Z,156211.19
2023-02-26T06:25:28.388Z,156211.19
2023-02-26T06:27:55.890Z,156205.88
2023-02-26T06:30:24.062Z,156211.19
2023-02-26T06:32:51.882Z,156208.50
2023-02-26T06:35:19.198Z,156223.03
2023-02-26T06:37:46.744Z,156216.44
2023-02-26T06:40:14.198Z,156241.59
2023-02-26T06:42:41.616Z,156248.19
2023-02-26T06:45:09.267Z,156249.50
2023-02-26T06:47:36.958Z,156264.06
2023-02-26T06:50:05.395Z,156266.72
2023-02-26T06:52:33.445Z,156274.66
2023-02-26T06:55:00.851Z,156277.28
2023-02-26T06:57:28.463Z,156281.28
2023-02-26T06:59:55.790Z,156297.16
2023-02-26T07:02:24.002Z,156290.53
2023-02-26T07:04:51.483Z,156269.38
2023-02-26T07:07:19.163Z,156279.91
2023-02-26T07:09:46.541Z,156282.59
2023-02-26T07:12:14.586Z,156273.34
2023-02-26T07:14:43.375Z,156298.47
2023-02-26T07:17:19.875Z,156309.06
2023-02-26T07:19:48.457Z,156315.69
2023-02-26T07:22:17.205Z,156307.72
2023-02-26T07:24:45.217Z,156306.41
2023-02-26T07:27:13.136Z,156298.47
2023-02-26T07:29:40.381Z,156306.41
2023-02-26T07:32:08.115Z,156310.38
2023-02-26T07:34:35.678Z,156307.72
2023-02-26T07:37:03.599Z,156307.72
2023-02-26T07:39:31.205Z,156306.41
2023-02-26T07:41:58.878Z,156303.75
2023-02-26T07:44:28.946Z,156289.22
2023-02-26T07:46:56.545Z,156298.47
2023-02-26T07:49:24.307Z,156318.31
2023-02-26T07:51:52.153Z,156317.00
2023-02-26T07:54:19.552Z,156328.88
2023-02-26T07:56:47.195Z,156320.94
2023-02-26T07:59:14.489Z,156326.25
2023-02-26T08:01:42.112Z,156317.00
2023-02-26T08:04:09.463Z,156322.31
2023-02-26T08:06:37.271Z,156299.78
2023-02-26T08:09:05.512Z,156317.00
2023-02-26T08:11:35.665Z,156307.72
2023-02-26T08:14:03.414Z,156320.94
2023-02-26T08:16:31.154Z,156320.94
2023-02-26T08:18:58.254Z,156313.00
2023-02-26T08:21:25.949Z,156310.38
2023-02-26T08:23:53.333Z,156293.16
2023-02-26T08:26:21.014Z,156295.84
2023-02-26T08:28:48.612Z,156290.53
2023-02-26T08:31:16.332Z,156297.16
2023-02-26T08:33:43.836Z,156301.09
2023-02-26T08:36:12.165Z,156305.06
2023-02-26T08:38:39.783Z,156313.00
2023-02-26T08:41:08.386Z,156298.47
2023-02-26T08:43:36.895Z,156319.63
2023-02-26T08:46:04.960Z,156320.94
2023-02-26T08:48:32.322Z,156311.69
2023-02-26T08:50:59.896Z,156347.41
2023-02-26T08:53:27.379Z,156356.66
2023-02-26T08:55:54.880Z,156351.41
2023-02-26T08:58:22.386Z,156350.09
2023-02-26T09:00:50.090Z,156373.88
2023-02-26T09:03:18.502Z,156364.66
2023-02-26T09:05:46.000Z,156361.97
2023-02-26T09:08:16.138Z,156346.09
2023-02-26T09:10:43.879Z,156363.28
2023-02-26T09:13:11.237Z,156363.28
2023-02-26T09:15:38.899Z,156355.34
2023-02-26T09:18:06.697Z,156355.34
2023-02-26T09:20:34.370Z,156359.34
2023-02-26T09:23:01.684Z,156371.25
2023-02-26T09:25:29.222Z,156375.22
2023-02-26T09:27:57.828Z,156372.56
2023-02-26T09:30:26.653Z,156393.75
2023-02-26T09:32:53.890Z,156381.81
2023-02-26T09:35:21.568Z,156393.75
2023-02-26T09:37:48.917Z,156400.38
2023-02-26T09:40:41.281Z,156397.69
2023-02-26T09:43:16.600Z,156409.63
2023-02-26T09:45:46.014Z,156424.16
2023-02-26T09:48:15.611Z,156432.09
2023-02-26T09:51:09.866Z,156432.09
2023-02-26T09:53:41.029Z,156442.72
2023-02-26T09:56:14.974Z,156418.88
2023-02-26T09:58:45.162Z,156420.22
2023-02-26T10:01:23.466Z,156422.84
2023-02-26T10:03:53.832Z,156429.47
2023-02-26T10:06:28.977Z,156432.09
2023-02-26T10:09:32.393Z,156414.91
2023-02-26T10:12:13.848Z,156403.00
2023-02-26T10:15:15.598Z,156397.69
2023-02-26T10:18:08.801Z,156407.00
2023-02-26T10:20:59.076Z,156399.06
2023-02-26T10:23:44.096Z,156416.25
2023-02-26T10:26:20.912Z,156417.56
2023-02-26T10:28:56.735Z,156412.25
2023-02-26T10:31:45.672Z,156426.81
2023-02-26T10:34:43.424Z,156449.34
2023-02-26T10:37:37.611Z,156474.47
2023-02-26T10:40:19.734Z,156477.13
2023-02-26T10:43:24.503Z,156486.38
2023-02-26T10:46:30.070Z,156497.00
2023-02-26T10:49:23.684Z,156487.72
2023-02-26T10:51:53.051Z,156493.00
2023-02-26T10:54:38.205Z,156507.56
2023-02-26T10:57:09.581Z,156507.56
2023-02-26T10:59:36.867Z,156516.81
2023-02-26T11:02:04.631Z,156535.38
2023-02-26T11:04:32.249Z,156528.75
2023-02-26T11:07:02.441Z,156514.19
2023-02-26T11:09:42.415Z,156502.25
2023-02-26T11:12:14.835Z,156503.56
2023-02-26T11:14:43.159Z,156504.94
2023-02-26T11:17:22.586Z,156499.63
2023-02-26T11:19:57.206Z,156506.25
2023-02-26T11:22:30.240Z,156532.75
2023-02-26T11:24:58.284Z,156548.63
2023-02-26T11:27:32.092Z,156526.13
2023-02-26T11:30:03.532Z,156519.50
2023-02-26T11:32:33.881Z,156514.19
2023-02-26T11:35:01.211Z,156518.19
2023-02-26T11:37:38.488Z,156520.81
2023-02-26T11:40:12.091Z,156542.00
2023-02-26T11:42:53.249Z,156515.50
2023-02-26T11:45:21.462Z,156530.06
2023-02-26T11:47:51.573Z,156530.06
2023-02-26T11:50:23.440Z,156535.38
2023-02-26T11:53:05.659Z,156560.56
2023-02-26T11:55:37.390Z,156553.94
2023-02-26T11:58:15.415Z,156577.75
2023-02-26T12:00:42.873Z,156592.31
2023-02-26T12:03:17.818Z,156620.13
2023-02-26T12:05:45.616Z,156645.28
2023-02-26T12:08:26.718Z,156625.41
2023-02-26T12:11:30.245Z,156640.00
2023-02-26T12:14:28.799Z,156643.97
2023-02-26T12:17:02.160Z,156653.25
2023-02-26T12:20:00.753Z,156642.63
2023-02-26T12:22:57.184Z,156626.75
2023-02-26T12:25:52.836Z,156636.00
2023-02-26T12:28:28.417Z,156629.38
2023-02-26T12:31:06.586Z,156625.41
2023-02-26T12:33:42.730Z,156650.59
2023-02-26T12:36:36.345Z,156666.50
2023-02-26T12:39:35.289Z,156654.56
2023-02-26T12:42:11.570Z,156670.44
2023-02-26T12:44:44.868Z,156675.75
2023-02-26T12:47:18.537Z,156686.38
2023-02-26T12:50:12.119Z,156681.06
2023-02-26T12:53:04.746Z,156679.75
2023-02-26T12:55:38.323Z,156687.69
2023-02-26T12:58:21.762Z,156708.88
2023-02-26T13:01:13.919Z,156726.06
2023-02-26T13:03:50.309Z,156711.50
2023-02-26T13:06:24.024Z,156706.19
2023-02-26T13:09:13.196Z,156687.69
2023-02-26T13:12:12.733Z,156683.69
2023-02-26T13:14:59.280Z,156681.06
2023-02-26T13:17:45.684Z,156682.38
2023-02-26T13:20:20.119Z,156723.44
2023-02-26T13:22:57.053Z,156722.13
2023-02-26T13:25:38.291Z,156753.88
2023-02-26T13:28:19.631Z,156749.94
2023-02-26T13:30:50.771Z,156749.94
2023-02-26T13:33:22.018Z,156732.69
2023-02-26T13:35:51.699Z,156751.25
2023-02-26T13:38:24.644Z,156755.22
2023-02-26T13:41:03.627Z,156757.88
2023-02-26T13:44:02.704Z,156760.50
2023-02-26T13:46:47.492Z,156777.78
2023-02-26T13:49:26.051Z,156788.34
2023-02-26T13:51:54.727Z,156818.84
2023-02-26T13:54:22.019Z,156838.69
2023-02-26T13:57:28.608Z,156844.00
2023-02-26T14:00:12.597Z,156841.38
2023-02-26T14:02:52.604Z,156848.00
2023-02-26T14:05:46.402Z,156824.13
2023-02-26T14:08:46.779Z,156849.31
2023-02-26T14:11:32.599Z,156832.06
2023-02-26T14:14:36.729Z,156822.78
2023-02-26T14:17:09.774Z,156844.00
2023-02-26T14:19:57.621Z,156834.75
2023-02-26T14:22:31.148Z,156832.06
2023-02-26T14:24:59.559Z,156836.06
2023-02-26T14:27:47.423Z,156826.81
2023-02-26T14:30:28.688Z,156826.81
2023-02-26T14:32:59.227Z,156814.84
2023-02-26T14:35:29.442Z,156805.59
2023-02-26T14:38:12.781Z,156789.66
2023-02-26T14:40:45.132Z,156793.66
2023-02-26T14:43:19.578Z,156784.41
2023-02-26T14:45:48.057Z,156800.28
2023-02-26T14:48:17.854Z,156787.03
2023-02-26T14:51:23.264Z,156798.97
2023-02-26T14:54:18.599Z,156800.28
2023-02-26T14:56:50.352Z,156792.34
2023-02-26T14:59:46.485Z,156794.97
2023-02-26T15:02:33.905Z,156805.59
2023-02-26T15:05:39.238Z,156798.97
2023-02-26T15:08:22.210Z,156787.03
2023-02-26T15:11:10.572Z,156783.03
2023-02-26T15:13:42.621Z,156787.03
2023-02-26T15:16:12.857Z,156779.09
2023-02-26T15:19:15.554Z,156775.09
2023-02-26T15:22:00.136Z,156773.78
2023-02-26T15:24:30.501Z,156785.72
2023-02-26T15:27:02.083Z,156706.19
2023-02-26T15:29:32.690Z,156765.81
2023-02-26T15:32:20.619Z,156764.50
2023-02-26T15:34:54.941Z,156767.16
2023-02-26T15:37:26.427Z,156763.19
2023-02-26T15:39:54.079Z,156755.22
2023-02-26T15:42:22.976Z,156761.84
2023-02-26T15:44:57.173Z,156769.81
2023-02-26T15:47:24.548Z,156732.69
2023-02-26T15:49:54.092Z,156775.09
2023-02-26T15:52:23.515Z,156780.41
2023-02-26T15:54:55.053Z,156764.50
2023-02-26T15:57:24.414Z,156773.78
2023-02-26T15:59:55.415Z,156771.16
2023-02-26T16:02:27.075Z,156764.50
2023-02-26T16:04:55.539Z,156777.78
2023-02-26T16:07:23.104Z,156764.50
2023-02-26T16:09:52.955Z,156777.78
2023-02-26T16:12:27.693Z,156761.84
2023-02-26T16:15:01.289Z,156775.09
2023-02-26T16:17:33.909Z,156787.03
2023-02-26T16:20:11.015Z,156780.41
2023-02-26T16:22:52.250Z,156791.03
2023-02-26T16:25:52.431Z,156787.03
2023-02-26T16:28:22.590Z,156777.78
2023-02-26T16:30:54.334Z,156769.81
2023-02-26T16:33:24.197Z,156752.56
2023-02-26T16:36:03.383Z,156727.38
2023-02-26T16:38:53.939Z,156699.63
2023-02-26T16:41:24.114Z,156683.69
2023-02-26T16:43:57.031Z,156685.00
2023-02-26T16:46:46.093Z,156677.06
2023-02-26T16:49:24.631Z,156682.38
2023-02-26T16:51:53.271Z,156674.44
2023-02-26T16:54:46.651Z,156647.94
2023-02-26T16:57:20.031Z,156608.19
2023-02-26T16:59:50.160Z,156626.75
2023-02-26T17:02:29.626Z,156591.00
2023-02-26T17:05:03.741Z,156565.81
2023-02-26T17:07:36.557Z,156561.88
2023-02-26T17:10:20.914Z,156557.88
2023-02-26T17:12:51.223Z,156535.38
2023-02-26T17:15:29.060Z,156530.06
2023-02-26T17:17:58.158Z,156535.38
2023-02-26T17:20:26.350Z,156536.69
2023-02-26T17:22:54.790Z,156536.69
2023-02-26T17:25:23.833Z,156530.06
2023-02-26T17:27:51.785Z,156523.44
2023-02-26T17:30:21.795Z,156549.94
2023-02-26T17:32:49.613Z,156544.63
2023-02-26T17:35:18.917Z,156569.81
2023-02-26T17:37:47.424Z,156579.06
2023-02-26T17:40:19.768Z,156585.69
2023-02-26T17:42:47.736Z,156592.31
2023-02-26T17:45:16.089Z,156604.22
2023-02-26T17:47:44.706Z,156618.78
2023-02-26T17:50:25.299Z,156606.88
2023-02-26T17:52:53.239Z,156626.75
2023-02-26T17:55:20.648Z,156632.03
2023-02-26T17:57:48.426Z,156617.47
2023-02-26T18:00:17.499Z,156618.78
2023-02-26T18:02:46.049Z,156613.50
2023-02-26T18:05:13.467Z,156612.16
2023-02-26T18:07:41.369Z,156610.84
2023-02-26T18:10:12.730Z,156613.50
2023-02-26T18:12:40.643Z,156609.53
2023-02-26T18:15:10.350Z,156609.53
2023-02-26T18:17:38.264Z,156613.50
2023-02-26T18:20:09.663Z,156601.59
2023-02-26T18:22:37.370Z,156600.25
2023-02-26T18:25:05.246Z,156608.19
2023-02-26T18:27:33.289Z,156601.59
2023-02-26T18:30:01.588Z,156618.78
2023-02-26T18:32:29.355Z,156610.84
2023-02-26T18:34:56.799Z,156593.63
2023-02-26T18:37:26.380Z,156612.16
2023-02-26T18:39:53.740Z,156602.91
2023-02-26T18:42:23.697Z,156610.84
2023-02-26T18:44:52.036Z,156614.81
2023-02-26T18:47:20.936Z,156620.13
2023-02-26T18:49:49.955Z,156620.13
2023-02-26T18:52:18.217Z,156616.16
2023-02-26T18:54:45.652Z,156622.78
2023-02-26T18:57:13.259Z,156634.69
2023-02-26T18:59:40.828Z,156636.00
2023-02-26T19:02:12.157Z,156638.66
2023-02-26T19:04:40.678Z,156636.00
2023-02-26T19:07:08.668Z,156625.41
2023-02-26T19:09:36.117Z,156634.69
2023-02-26T19:12:04.438Z,156650.59
2023-02-26T19:14:32.089Z,156640.00
2023-02-26T19:17:00.487Z,156638.66
2023-02-26T19:19:27.867Z,156634.69
2023-02-26T19:21:56.230Z,156638.66
2023-02-26T19:24:24.048Z,156638.66
2023-02-26T19:26:52.336Z,156650.59
2023-02-26T19:29:20.775Z,156630.72
2023-02-26T19:31:48.648Z,156646.63
2023-02-26T19:34:16.406Z,156645.28
2023-02-26T19:36:48.393Z,156643.97
2023-02-26T19:39:17.112Z,156654.56
2023-02-26T19:41:46.193Z,156651.91
2023-02-26T19:44:17.266Z,156645.28
2023-02-26T19:46:45.163Z,156653.25
2023-02-26T19:49:13.971Z,156655.88
2023-02-26T19:51:45.229Z,156628.06
2023-02-26T19:54:15.778Z,156651.91
2023-02-26T19:56:44.231Z,156653.25
2023-02-26T19:59:12.880Z,156653.25
2023-02-26T20:01:42.393Z,156657.19
2023-02-26T20:04:10.400Z,156654.56
2023-02-26T20:06:38.393Z,156666.50
2023-02-26T20:09:07.703Z,156669.13
2023-02-26T20:11:35.723Z,156666.50
2023-02-26T20:14:03.076Z,156674.44
2023-02-26T20:16:30.941Z,156677.06
2023-02-26T20:18:58.396Z,156679.75
2023-02-26T20:21:27.525Z,156678.38
2023-02-26T20:23:55.815Z,156682.38
2023-02-26T20:26:23.908Z,156675.75
2023-02-26T20:28:51.407Z,156681.06
2023-02-26T20:31:19.277Z,156671.78
2023-02-26T20:33:46.959Z,156677.06
2023-02-26T20:36:14.838Z,156674.44
2023-02-26T20:38:43.051Z,156661.19
2023-02-26T20:41:11.022Z,156657.19
2023-02-26T20:43:38.666Z,156673.13
2023-02-26T20:46:06.487Z,156693.00
2023-02-26T20:48:34.842Z,156674.44
2023-02-26T20:51:06.473Z,156669.13
2023-02-26T20:53:35.730Z,156685.00
2023-02-26T20:56:04.321Z,156677.06
2023-02-26T20:58:32.440Z,156673.13
2023-02-26T21:01:00.868Z,156667.81
2023-02-26T21:03:28.268Z,156669.13
2023-02-26T21:05:56.102Z,156642.63
2023-02-26T21:08:23.914Z,156669.13
2023-02-26T21:10:52.013Z,156653.25
2023-02-26T21:13:19.991Z,156670.44
2023-02-26T21:15:50.362Z,156661.19
2023-02-26T21:18:17.831Z,156658.53
2023-02-26T21:20:45.675Z,156661.19
2023-02-26T21:23:13.021Z,156657.19
2023-02-26T21:25:41.078Z,156653.25
2023-02-26T21:28:08.545Z,156650.59
2023-02-26T21:30:36.559Z,156640.00
2023-02-26T21:33:03.973Z,156650.59
2023-02-26T21:35:31.803Z,156640.00
2023-02-26T21:37:59.191Z,156643.97
2023-02-26T21:40:26.963Z,156638.66
2023-02-26T21:42:54.306Z,156636.00
2023-02-26T21:45:22.018Z,156636.00
2023-02-26T21:47:49.214Z,156625.41
2023-02-26T21:50:17.145Z,156622.78
2023-02-26T21:52:44.941Z,156642.63
2023-02-26T21:55:12.797Z,156632.03
2023-02-26T21:57:40.300Z,156629.38
2023-02-26T22:00:10.533Z,156632.03
2023-02-26T22:02:40.975Z,156624.09
2023-02-26T22:05:10.204Z,156626.75
2023-02-26T22:07:38.544Z,156617.47
2023-02-26T22:10:08.284Z,156618.78
2023-02-26T22:12:35.814Z,156625.41
2023-02-26T22:15:03.868Z,156610.84
2023-02-26T22:17:31.390Z,156601.59
2023-02-26T22:19:58.979Z,156610.84
2023-02-26T22:22:27.116Z,156601.59
2023-02-26T22:24:54.664Z,156605.56
2023-02-26T22:27:22.620Z,156584.38
2023-02-26T22:29:50.374Z,156579.06
2023-02-26T22:32:17.892Z,156596.28
2023-02-26T22:34:46.257Z,156602.91
2023-02-26T22:37:13.811Z,156600.25
2023-02-26T22:39:42.626Z,156610.84
2023-02-26T22:42:09.956Z,156605.56
2023-02-26T22:44:37.792Z,156608.19
2023-02-26T22:47:05.016Z,156608.19
2023-02-26T22:49:32.517Z,156616.16
2023-02-26T22:51:59.959Z,156618.78
2023-02-26T22:54:27.690Z,156626.75
2023-02-26T22:56:55.037Z,156633.38
2023-02-26T22:59:22.696Z,156621.44
2023-02-26T23:01:50.042Z,156587.00
2023-02-26T23:04:18.244Z,156606.88
2023-02-26T23:06:45.486Z,156605.56
2023-02-26T23:09:13.062Z,156604.22
2023-02-26T23:11:40.277Z,156591.00
2023-02-26T23:14:08.263Z,156608.19
2023-02-26T23:16:35.381Z,156594.97
2023-02-26T23:19:03.057Z,156588.34
2023-02-26T23:21:31.084Z,156568.47
2023-02-26T23:23:58.850Z,156587.00
2023-02-26T23:26:26.200Z,156567.16
2023-02-26T23:28:53.740Z,156589.69
2023-02-26T23:31:21.216Z,156575.09
2023-02-26T23:33:48.974Z,156563.19
2023-02-26T23:36:16.302Z,156549.94
2023-02-26T23:38:43.823Z,156557.88
2023-02-26T23:41:11.140Z,156546.00
2023-02-26T23:43:39.299Z,156552.56
2023-02-26T23:46:06.762Z,156539.38
2023-02-26T23:48:34.335Z,156534.06
2023-02-26T23:51:01.949Z,156540.69
2023-02-26T23:53:29.543Z,156523.44
2023-02-26T23:55:59.793Z,156520.81
2023-02-26T23:58:28.878Z,156511.56
